sensor_id;sensor_type;location;lat;lon;timestamp;pressure;altitude;pressure_sealevel;temperature;humidity
64908;BME280;51412;52.236;5.188;2022-08-25T00:00:58;101709.84;;;23.51;78.14
64908;BME280;51412;52.236;5.188;2022-08-25T00:03:25;101705.94;;;23.52;78.50
64908;BME280;51412;52.236;5.188;2022-08-25T00:05:51;101706.72;;;23.53;78.30
64908;BME280;51412;52.236;5.188;2022-08-25T00:08:18;101699.00;;;23.51;78.49
64908;BME280;51412;52.236;5.188;2022-08-25T00:10:44;101697.50;;;23.50;77.71
64908;BME280;51412;52.236;5.188;2022-08-25T00:13:12;101708.00;;;23.48;78.45
64908;BME280;51412;52.236;5.188;2022-08-25T00:15:39;101701.84;;;23.48;78.25
64908;BME280;51412;52.236;5.188;2022-08-25T00:18:05;101701.94;;;23.44;78.14
64908;BME280;51412;52.236;5.188;2022-08-25T00:20:32;101704.19;;;23.46;77.63
64908;BME280;51412;52.236;5.188;2022-08-25T00:22:58;101694.53;;;23.45;77.90
64908;BME280;51412;52.236;5.188;2022-08-25T00:25:25;101698.47;;;23.44;78.18
64908;BME280;51412;52.236;5.188;2022-08-25T00:27:52;101698.47;;;23.44;78.22
64908;BME280;51412;52.236;5.188;2022-08-25T00:30:20;101694.22;;;23.43;78.53
64908;BME280;51412;52.236;5.188;2022-08-25T00:32:47;101691.59;;;23.39;78.60
64908;BME280;51412;52.236;5.188;2022-08-25T00:35:14;101697.47;;;23.37;78.27
64908;BME280;51412;52.236;5.188;2022-08-25T00:37:41;101698.66;;;23.36;78.50
64908;BME280;51412;52.236;5.188;2022-08-25T00:40:08;101688.66;;;23.33;78.52
64908;BME280;51412;52.236;5.188;2022-08-25T00:42:35;101693.00;;;23.31;78.53
64908;BME280;51412;52.236;5.188;2022-08-25T00:45:04;101688.00;;;23.29;77.66
64908;BME280;51412;52.236;5.188;2022-08-25T00:47:32;101688.88;;;23.26;78.49
64908;BME280;51412;52.236;5.188;2022-08-25T00:50:00;101682.69;;;23.26;77.90
64908;BME280;51412;52.236;5.188;2022-08-25T00:52:31;101688.53;;;23.24;77.37
64908;BME280;51412;52.236;5.188;2022-08-25T00:55:01;101679.22;;;23.25;77.96
64908;BME280;51412;52.236;5.188;2022-08-25T00:57:30;101684.63;;;23.25;77.92
64908;BME280;51412;52.236;5.188;2022-08-25T00:59:58;101690.06;;;23.25;78.01
64908;BME280;51412;52.236;5.188;2022-08-25T01:02:25;101681.59;;;23.23;77.63
64908;BME280;51412;52.236;5.188;2022-08-25T01:04:53;101681.25;;;23.21;77.38
64908;BME280;51412;52.236;5.188;2022-08-25T01:07:20;101692.13;;;23.21;77.74
64908;BME280;51412;52.236;5.188;2022-08-25T01:09:50;101684.41;;;23.19;77.79
64908;BME280;51412;52.236;5.188;2022-08-25T01:12:18;101676.72;;;23.18;78.07
64908;BME280;51412;52.236;5.188;2022-08-25T01:14:45;101672.47;;;23.17;77.99
64908;BME280;51412;52.236;5.188;2022-08-25T01:17:11;101669.75;;;23.17;77.38
64908;BME280;51412;52.236;5.188;2022-08-25T01:19:38;101667.22;;;23.10;77.43
64908;BME280;51412;52.236;5.188;2022-08-25T01:22:06;101674.16;;;23.11;77.41
64908;BME280;51412;52.236;5.188;2022-08-25T01:24:37;101666.88;;;23.08;77.50
64908;BME280;51412;52.236;5.188;2022-08-25T01:27:06;101677.06;;;23.03;78.20
64908;BME280;51412;52.236;5.188;2022-08-25T01:29:33;101670.47;;;23.04;77.85
64908;BME280;51412;52.236;5.188;2022-08-25T01:32:04;101665.47;;;23.03;77.83
64908;BME280;51412;52.236;5.188;2022-08-25T01:34:34;101680.22;;;23.02;77.58
64908;BME280;51412;52.236;5.188;2022-08-25T01:37:02;101668.19;;;23.03;77.28
64908;BME280;51412;52.236;5.188;2022-08-25T01:39:31;101672.81;;;23.02;77.28
64908;BME280;51412;52.236;5.188;2022-08-25T01:42:21;101682.13;;;23.01;76.62
64908;BME280;51412;52.236;5.188;2022-08-25T01:44:48;101670.88;;;23.03;76.87
64908;BME280;51412;52.236;5.188;2022-08-25T01:47:15;101669.78;;;23.00;76.67
64908;BME280;51412;52.236;5.188;2022-08-25T01:49:42;101674.78;;;23.02;76.50
64908;BME280;51412;52.236;5.188;2022-08-25T01:52:11;101670.22;;;22.99;76.23
64908;BME280;51412;52.236;5.188;2022-08-25T01:54:41;101663.59;;;23.00;76.04
64908;BME280;51412;52.236;5.188;2022-08-25T01:57:08;101662.84;;;22.99;76.49
64908;BME280;51412;52.236;5.188;2022-08-25T01:59:34;101662.84;;;22.99;76.04
64908;BME280;51412;52.236;5.188;2022-08-25T02:02:01;101659.78;;;22.97;76.44
64908;BME280;51412;52.236;5.188;2022-08-25T02:04:28;101659.47;;;22.95;76.61
64908;BME280;51412;52.236;5.188;2022-08-25T02:06:56;101661.09;;;22.93;76.52
64908;BME280;51412;52.236;5.188;2022-08-25T02:09:23;101657.94;;;22.94;76.28
64908;BME280;51412;52.236;5.188;2022-08-25T02:11:51;101655.31;;;22.91;75.69
64908;BME280;51412;52.236;5.188;2022-08-25T02:14:17;101655.00;;;22.88;75.80
64908;BME280;51412;52.236;5.188;2022-08-25T02:16:45;101648.84;;;22.88;75.77
64908;BME280;51412;52.236;5.188;2022-08-25T02:19:13;101648.13;;;22.84;75.87
64908;BME280;51412;52.236;5.188;2022-08-25T02:21:40;101653.56;;;22.84;75.71
64908;BME280;51412;52.236;5.188;2022-08-25T02:24:07;101654.34;;;22.84;75.30
64908;BME280;51412;52.236;5.188;2022-08-25T02:26:34;101654.34;;;22.84;75.21
64908;BME280;51412;52.236;5.188;2022-08-25T02:29:04;101654.78;;;22.83;74.98
64908;BME280;51412;52.236;5.188;2022-08-25T02:31:32;101657.56;;;22.79;74.43
64908;BME280;51412;52.236;5.188;2022-08-25T02:33:59;101655.59;;;22.80;74.68
64908;BME280;51412;52.236;5.188;2022-08-25T02:36:26;101646.72;;;22.79;74.30
64908;BME280;51412;52.236;5.188;2022-08-25T02:38:52;101652.56;;;22.78;73.85
64908;BME280;51412;52.236;5.188;2022-08-25T02:41:21;101654.09;;;22.79;73.89
64908;BME280;51412;52.236;5.188;2022-08-25T02:43:49;101649.13;;;22.77;73.84
64908;BME280;51412;52.236;5.188;2022-08-25T02:46:22;101648.03;;;22.75;73.45
64908;BME280;51412;52.236;5.188;2022-08-25T02:48:49;101648.03;;;22.75;73.28
64908;BME280;51412;52.236;5.188;2022-08-25T02:51:17;101646.50;;;22.74;73.33
64908;BME280;51412;52.236;5.188;2022-08-25T02:53:44;101644.97;;;22.73;73.12
64908;BME280;51412;52.236;5.188;2022-08-25T02:56:12;101629.88;;;22.71;73.20
64908;BME280;51412;52.236;5.188;2022-08-25T02:58:40;101641.81;;;22.74;73.03
64908;BME280;51412;52.236;5.188;2022-08-25T03:01:08;101631.84;;;22.71;72.72
64908;BME280;51412;52.236;5.188;2022-08-25T03:03:37;101629.06;;;22.75;72.26
64908;BME280;51412;52.236;5.188;2022-08-25T03:06:06;101627.09;;;22.75;72.15
64908;BME280;51412;52.236;5.188;2022-08-25T03:08:32;101632.94;;;22.74;72.39
64908;BME280;51412;52.236;5.188;2022-08-25T03:10:59;101619.81;;;22.72;72.26
64908;BME280;51412;52.236;5.188;2022-08-25T03:13:25;101619.72;;;22.76;71.90
64908;BME280;51412;52.236;5.188;2022-08-25T03:15:52;101620.06;;;22.78;72.12
64908;BME280;51412;52.236;5.188;2022-08-25T03:18:19;101611.19;;;22.77;71.91
64908;BME280;51412;52.236;5.188;2022-08-25T03:20:48;101613.13;;;22.77;71.43
64908;BME280;51412;52.236;5.188;2022-08-25T03:23:15;101613.47;;;22.79;71.40
64908;BME280;51412;52.236;5.188;2022-08-25T03:25:41;101610.31;;;22.80;71.11
64908;BME280;51412;52.236;5.188;2022-08-25T03:28:25;101604.22;;;22.76;70.53
64908;BME280;51412;52.236;5.188;2022-08-25T03:30:52;101609.66;;;22.76;70.87
64908;BME280;51412;52.236;5.188;2022-08-25T03:33:18;101603.44;;;22.76;70.64
64908;BME280;51412;52.236;5.188;2022-08-25T03:35:45;101597.72;;;22.74;70.34
64908;BME280;51412;52.236;5.188;2022-08-25T03:38:13;101605.06;;;22.73;70.63
64908;BME280;51412;52.236;5.188;2022-08-25T03:40:41;101598.59;;;22.70;70.58
64908;BME280;51412;52.236;5.188;2022-08-25T03:43:08;101592.81;;;22.68;69.94
64908;BME280;51412;52.236;5.188;2022-08-25T03:45:39;101589.78;;;22.66;70.20
64908;BME280;51412;52.236;5.188;2022-08-25T03:48:06;101591.72;;;22.66;69.87
64908;BME280;51412;52.236;5.188;2022-08-25T03:50:32;101579.66;;;22.54;70.03
64908;BME280;51412;52.236;5.188;2022-08-25T03:52:59;101598.00;;;22.63;69.77
64908;BME280;51412;52.236;5.188;2022-08-25T03:55:28;101588.88;;;22.57;69.92
64908;BME280;51412;52.236;5.188;2022-08-25T03:57:54;101593.53;;;22.56;69.53
64908;BME280;51412;52.236;5.188;2022-08-25T04:00:22;101592.69;;;22.59;69.48
64908;BME280;51412;52.236;5.188;2022-08-25T04:02:48;101581.53;;;22.57;69.57
64908;BME280;51412;52.236;5.188;2022-08-25T04:05:15;101586.94;;;22.57;69.22
64908;BME280;51412;52.236;5.188;2022-08-25T04:07:41;101579.31;;;22.52;69.11
64908;BME280;51412;52.236;5.188;2022-08-25T04:10:09;101580.06;;;22.52;69.09
64908;BME280;51412;52.236;5.188;2022-08-25T04:12:38;101577.81;;;22.51;69.44
64908;BME280;51412;52.236;5.188;2022-08-25T04:15:06;101580.19;;;22.49;68.78
64908;BME280;51412;52.236;5.188;2022-08-25T04:17:36;101575.97;;;22.48;69.08
64908;BME280;51412;52.236;5.188;2022-08-25T04:20:04;101568.69;;;22.45;68.74
64908;BME280;51412;52.236;5.188;2022-08-25T04:22:30;101574.09;;;22.45;68.67
64908;BME280;51412;52.236;5.188;2022-08-25T04:24:57;101574.09;;;22.45;68.55
64908;BME280;51412;52.236;5.188;2022-08-25T04:27:23;101569.53;;;22.42;68.35
64908;BME280;51412;52.236;5.188;2022-08-25T04:29:51;101565.63;;;22.43;68.05
64908;BME280;51412;52.236;5.188;2022-08-25T04:32:18;101567.16;;;22.44;67.95
64908;BME280;51412;52.236;5.188;2022-08-25T04:34:45;101558.69;;;22.42;67.76
64908;BME280;51412;52.236;5.188;2022-08-25T04:37:12;101557.16;;;22.41;67.71
64908;BME280;51412;52.236;5.188;2022-08-25T04:39:39;101559.88;;;22.41;67.21
64908;BME280;51412;52.236;5.188;2022-08-25T04:42:06;101564.53;;;22.40;67.05
64908;BME280;51412;52.236;5.188;2022-08-25T04:44:32;101562.59;;;22.41;67.48
64908;BME280;51412;52.236;5.188;2022-08-25T04:47:00;101567.34;;;22.36;67.73
64908;BME280;51412;52.236;5.188;2022-08-25T04:49:28;101566.59;;;22.36;67.47
64908;BME280;51412;52.236;5.188;2022-08-25T04:51:54;101568.94;;;22.34;66.85
64908;BME280;51412;52.236;5.188;2022-08-25T04:54:21;101564.31;;;22.34;66.82
64908;BME280;51412;52.236;5.188;2022-08-25T04:56:49;101558.19;;;22.30;66.19
64908;BME280;51412;52.236;5.188;2022-08-25T04:59:17;101564.34;;;22.31;66.97
64908;BME280;51412;52.236;5.188;2022-08-25T05:01:44;101576.72;;;22.32;66.57
64908;BME280;51412;52.236;5.188;2022-08-25T05:04:14;101563.59;;;22.30;66.24
64908;BME280;51412;52.236;5.188;2022-08-25T05:06:41;101566.75;;;22.29;66.45
64908;BME280;51412;52.236;5.188;2022-08-25T05:09:08;101567.50;;;22.29;65.92
64908;BME280;51412;52.236;5.188;2022-08-25T05:11:35;101565.97;;;22.28;65.36
64908;BME280;51412;52.236;5.188;2022-08-25T05:14:02;101562.09;;;22.29;65.30
64908;BME280;51412;52.236;5.188;2022-08-25T05:16:29;101570.72;;;22.24;65.00
64908;BME280;51412;52.236;5.188;2022-08-25T05:18:56;101578.53;;;22.22;65.25
64908;BME280;51412;52.236;5.188;2022-08-25T05:21:26;101588.69;;;22.18;65.63
64908;BME280;51412;52.236;5.188;2022-08-25T05:23:55;101585.88;;;22.21;65.88
64908;BME280;51412;52.236;5.188;2022-08-25T05:26:23;101595.50;;;22.23;65.16
64908;BME280;51412;52.236;5.188;2022-08-25T05:28:51;101584.25;;;22.24;65.46
64908;BME280;51412;52.236;5.188;2022-08-25T05:31:19;101581.47;;;22.28;64.93
64908;BME280;51412;52.236;5.188;2022-08-25T05:33:46;101582.22;;;22.28;64.74
64908;BME280;51412;52.236;5.188;2022-08-25T05:36:13;101581.78;;;22.30;65.87
64908;BME280;51412;52.236;5.188;2022-08-25T05:38:42;101585.28;;;22.30;65.23
64908;BME280;51412;52.236;5.188;2022-08-25T05:41:11;101585.59;;;22.32;65.20
64908;BME280;51412;52.236;5.188;2022-08-25T05:43:40;101591.31;;;22.38;64.87
64908;BME280;51412;52.236;5.188;2022-08-25T05:46:08;101590.44;;;22.41;64.64
64908;BME280;51412;52.236;5.188;2022-08-25T05:48:35;101604.66;;;22.45;63.97
64908;BME280;51412;52.236;5.188;2022-08-25T05:51:03;101596.75;;;22.51;64.26
64908;BME280;51412;52.236;5.188;2022-08-25T05:53:30;101594.72;;;22.55;64.19
64908;BME280;51412;52.236;5.188;2022-08-25T05:55:58;101599.63;;;22.60;64.26
64908;BME280;51412;52.236;5.188;2022-08-25T05:58:26;101596.03;;;22.63;63.46
64908;BME280;51412;52.236;5.188;2022-08-25T06:00:53;101590.97;;;22.65;62.86
64908;BME280;51412;52.236;5.188;2022-08-25T06:03:20;101595.38;;;22.59;62.38
64908;BME280;51412;52.236;5.188;2022-08-25T06:05:46;101599.94;;;22.62;62.16
64908;BME280;51412;52.236;5.188;2022-08-25T06:08:13;101596.81;;;22.64;62.54
64908;BME280;51412;52.236;5.188;2022-08-25T06:10:40;101603.34;;;22.66;62.02
64908;BME280;51412;52.236;5.188;2022-08-25T06:13:08;101607.91;;;22.69;61.60
64908;BME280;51412;52.236;5.188;2022-08-25T06:15:35;101605.84;;;22.74;62.01
64908;BME280;51412;52.236;5.188;2022-08-25T06:18:01;101608.56;;;22.74;61.80
64908;BME280;51412;52.236;5.188;2022-08-25T06:20:29;101604.97;;;22.77;61.91
64908;BME280;51412;52.236;5.188;2022-08-25T06:22:57;101605.66;;;22.81;62.32
64908;BME280;51412;52.236;5.188;2022-08-25T06:25:25;101598.28;;;22.81;61.73
64908;BME280;51412;52.236;5.188;2022-08-25T06:27:52;101599.03;;;22.82;61.86
64908;BME280;51412;52.236;5.188;2022-08-25T06:30:22;101602.94;;;22.81;61.59
64908;BME280;51412;52.236;5.188;2022-08-25T06:32:49;101599.69;;;22.86;62.07
64908;BME280;51412;52.236;5.188;2022-08-25T06:35:18;101597.34;;;22.88;62.02
64908;BME280;51412;52.236;5.188;2022-08-25T06:37:45;101608.28;;;22.97;62.01
64908;BME280;51412;52.236;5.188;2022-08-25T06:40:13;101603.41;;;22.92;61.35
64908;BME280;51412;52.236;5.188;2022-08-25T06:42:40;101602.31;;;22.90;61.45
64908;BME280;51412;52.236;5.188;2022-08-25T06:45:08;101599.50;;;22.93;61.66
64908;BME280;51412;52.236;5.188;2022-08-25T06:47:35;101599.41;;;22.97;61.80
64908;BME280;51412;52.236;5.188;2022-08-25T06:50:04;101592.28;;;23.03;61.64
64908;BME280;51412;52.236;5.188;2022-08-25T06:52:30;101593.69;;;23.08;61.93
64908;BME280;51412;52.236;5.188;2022-08-25T06:54:57;101590.78;;;23.15;61.97
64908;BME280;51412;52.236;5.188;2022-08-25T06:57:24;101592.97;;;23.20;61.64
64908;BME280;51412;52.236;5.188;2022-08-25T06:59:50;101593.63;;;23.24;60.96
64908;BME280;51412;52.236;5.188;2022-08-25T07:02:17;101596.97;;;23.28;60.50
64908;BME280;51412;52.236;5.188;2022-08-25T07:04:45;101601.34;;;23.38;60.45
64908;BME280;51412;52.236;5.188;2022-08-25T07:07:12;101592.66;;;23.44;60.23
64908;BME280;51412;52.236;5.188;2022-08-25T07:09:38;101595.91;;;23.51;59.99
64908;BME280;51412;52.236;5.188;2022-08-25T07:12:06;101586.25;;;23.63;59.87
64908;BME280;51412;52.236;5.188;2022-08-25T07:14:33;101594.16;;;23.70;59.61
64908;BME280;51412;52.236;5.188;2022-08-25T07:17:00;101594.69;;;23.78;58.78
64908;BME280;51412;52.236;5.188;2022-08-25T07:19:26;101594.38;;;23.89;57.79
64908;BME280;51412;52.236;5.188;2022-08-25T07:21:54;101596.00;;;23.99;57.79
64908;BME280;51412;52.236;5.188;2022-08-25T07:24:21;101593.38;;;24.09;57.92
64908;BME280;51412;52.236;5.188;2022-08-25T07:26:48;101596.81;;;24.22;57.59
64908;BME280;51412;52.236;5.188;2022-08-25T07:29:17;101591.03;;;24.33;57.19
64908;BME280;51412;52.236;5.188;2022-08-25T07:31:44;101592.78;;;24.49;55.83
64908;BME280;51412;52.236;5.188;2022-08-25T07:34:11;101591.03;;;24.55;55.87
64908;BME280;51412;52.236;5.188;2022-08-25T07:37:11;101591.44;;;24.66;55.75
64908;BME280;51412;52.236;5.188;2022-08-25T07:39:37;101593.31;;;24.79;55.28
64908;BME280;51412;52.236;5.188;2022-08-25T07:42:04;101593.25;;;24.92;55.23
64908;BME280;51412;52.236;5.188;2022-08-25T07:44:31;101583.63;;;25.00;54.73
64908;BME280;51412;52.236;5.188;2022-08-25T07:46:57;101579.31;;;25.12;54.26
64908;BME280;51412;52.236;5.188;2022-08-25T07:49:25;101578.13;;;25.22;54.11
64908;BME280;51412;52.236;5.188;2022-08-25T07:51:52;101580.06;;;25.34;53.80
64908;BME280;51412;52.236;5.188;2022-08-25T07:54:20;101573.25;;;25.39;52.81
64908;BME280;51412;52.236;5.188;2022-08-25T07:56:47;101572.97;;;25.46;53.10
64908;BME280;51412;52.236;5.188;2022-08-25T07:59:13;101588.75;;;25.61;53.00
64908;BME280;51412;52.236;5.188;2022-08-25T08:01:40;101582.75;;;25.75;52.62
64908;BME280;51412;52.236;5.188;2022-08-25T08:04:06;101585.03;;;25.86;52.53
64908;BME280;51412;52.236;5.188;2022-08-25T08:06:33;101574.00;;;25.99;51.91
64908;BME280;51412;52.236;5.188;2022-08-25T08:09:00;101570.56;;;26.17;51.48
64908;BME280;51412;52.236;5.188;2022-08-25T08:11:30;101589.31;;;26.33;50.94
64908;BME280;51412;52.236;5.188;2022-08-25T08:13:57;101584.31;;;26.50;50.82
64908;BME280;51412;52.236;5.188;2022-08-25T08:16:26;101578.09;;;26.68;50.32
64908;BME280;51412;52.236;5.188;2022-08-25T08:18:54;101567.75;;;26.82;50.03
64908;BME280;51412;52.236;5.188;2022-08-25T08:21:23;101578.34;;;26.98;49.98
64908;BME280;51412;52.236;5.188;2022-08-25T08:23:51;101574.31;;;27.18;49.22
64908;BME280;51412;52.236;5.188;2022-08-25T08:26:19;101568.00;;;27.36;49.20
64908;BME280;51412;52.236;5.188;2022-08-25T08:28:47;101572.06;;;27.50;48.27
64908;BME280;51412;52.236;5.188;2022-08-25T08:31:13;101563.63;;;27.63;48.22
64908;BME280;51412;52.236;5.188;2022-08-25T08:33:43;101569.94;;;27.78;47.91
64908;BME280;51412;52.236;5.188;2022-08-25T08:36:11;101564.78;;;27.95;47.79
64908;BME280;51412;52.236;5.188;2022-08-25T08:38:39;101572.13;;;28.13;47.03
64908;BME280;51412;52.236;5.188;2022-08-25T08:41:16;101561.97;;;28.29;46.62
64908;BME280;51412;52.236;5.188;2022-08-25T08:44:11;101571.13;;;28.55;46.53
64908;BME280;51412;52.236;5.188;2022-08-25T08:46:45;101561.50;;;28.75;45.06
64908;BME280;51412;52.236;5.188;2022-08-25T08:49:18;101555.47;;;28.86;43.05
64908;BME280;51412;52.236;5.188;2022-08-25T08:51:52;101547.03;;;29.04;43.56
64908;BME280;51412;52.236;5.188;2022-08-25T08:54:22;101554.59;;;29.10;43.29
64908;BME280;51412;52.236;5.188;2022-08-25T08:56:55;101559.94;;;29.19;42.21
64908;BME280;51412;52.236;5.188;2022-08-25T08:59:30;101552.88;;;29.27;41.08
64908;BME280;51412;52.236;5.188;2022-08-25T09:02:02;101558.84;;;29.46;41.87
64908;BME280;51412;52.236;5.188;2022-08-25T09:04:33;101557.88;;;29.70;41.11
64908;BME280;51412;52.236;5.188;2022-08-25T09:07:02;101551.50;;;29.79;40.90
64908;BME280;51412;52.236;5.188;2022-08-25T09:09:32;101556.66;;;29.92;41.34
64908;BME280;51412;52.236;5.188;2022-08-25T09:12:04;101553.81;;;30.06;41.29
64908;BME280;51412;52.236;5.188;2022-08-25T09:14:45;101555.56;;;30.30;40.76
64908;BME280;51412;52.236;5.188;2022-08-25T09:17:20;101556.13;;;30.40;40.41
64908;BME280;51412;52.236;5.188;2022-08-25T09:23:14;101552.34;;;30.58;39.69
64908;BME280;51412;52.236;5.188;2022-08-25T09:25:51;101558.44;;;30.73;39.78
64908;BME280;51412;52.236;5.188;2022-08-25T09:28:28;101557.56;;;30.88;39.52
64908;BME280;51412;52.236;5.188;2022-08-25T09:30:59;101549.66;;;31.01;39.79
64908;BME280;51412;52.236;5.188;2022-08-25T09:33:28;101555.56;;;31.26;40.37
64908;BME280;51412;52.236;5.188;2022-08-25T09:35:56;101546.41;;;31.46;38.59
64908;BME280;51412;52.236;5.188;2022-08-25T09:38:23;101559.00;;;31.64;38.65
64908;BME280;51412;52.236;5.188;2022-08-25T09:40:53;101550.53;;;31.73;38.33
64908;BME280;51412;52.236;5.188;2022-08-25T09:43:21;101544.09;;;31.94;38.91
64908;BME280;51412;52.236;5.188;2022-08-25T09:45:56;101552.38;;;32.16;37.86
64908;BME280;51412;52.236;5.188;2022-08-25T09:48:27;101538.91;;;32.30;36.79
64908;BME280;51412;52.236;5.188;2022-08-25T09:50:58;101537.41;;;32.34;37.93
64908;BME280;51412;52.236;5.188;2022-08-25T09:53:27;101523.66;;;32.57;36.84
64908;BME280;51412;52.236;5.188;2022-08-25T09:55:58;101538.13;;;32.69;35.27
64908;BME280;51412;52.236;5.188;2022-08-25T09:58:29;101527.66;;;32.79;36.72
64908;BME280;51412;52.236;5.188;2022-08-25T10:01:05;101527.09;;;32.97;32.89
64908;BME280;51412;52.236;5.188;2022-08-25T10:03:52;101520.06;;;33.07;34.02
64908;BME280;51412;52.236;5.188;2022-08-25T10:06:20;101508.25;;;33.18;34.34
64908;BME280;51412;52.236;5.188;2022-08-25T10:08:52;101515.50;;;33.33;33.66
64908;BME280;51412;52.236;5.188;2022-08-25T10:11:30;101511.69;;;33.41;33.11
64908;BME280;51412;52.236;5.188;2022-08-25T10:14:05;101500.13;;;33.49;32.87
64908;BME280;51412;52.236;5.188;2022-08-25T10:16:33;101496.31;;;33.63;33.02
64908;BME280;51412;52.236;5.188;2022-08-25T10:19:05;101507.22;;;33.86;32.14
64908;BME280;51412;52.236;5.188;2022-08-25T10:21:33;101504.66;;;33.94;31.88
64908;BME280;51412;52.236;5.188;2022-08-25T10:24:00;101493.34;;;33.97;31.24
64908;BME280;51412;52.236;5.188;2022-08-25T10:26:35;101503.03;;;34.10;31.89
64908;BME280;51412;52.236;5.188;2022-08-25T10:29:10;101499.25;;;34.13;30.15
64908;BME280;51412;52.236;5.188;2022-08-25T10:31:45;101492.47;;;34.14;30.34
64908;BME280;51412;52.236;5.188;2022-08-25T10:34:24;101481.56;;;34.27;30.31
64908;BME280;51412;52.236;5.188;2022-08-25T10:37:05;101484.63;;;34.23;28.17
64908;BME280;51412;52.236;5.188;2022-08-25T10:39:39;101484.63;;;34.23;28.39
64908;BME280;51412;52.236;5.188;2022-08-25T10:42:29;101483.06;;;34.28;28.64
64908;BME280;51412;52.236;5.188;2022-08-25T10:45:12;101480.06;;;34.26;27.70
64908;BME280;51412;52.236;5.188;2022-08-25T10:48:25;101476.03;;;34.33;28.55
64908;BME280;51412;52.236;5.188;2022-08-25T10:51:02;101467.41;;;34.12;27.34
64908;BME280;51412;52.236;5.188;2022-08-25T10:53:41;101458.06;;;34.20;27.49
64908;BME280;51412;52.236;5.188;2022-08-25T10:56:15;101456.53;;;34.25;27.98
64908;BME280;51412;52.236;5.188;2022-08-25T10:59:09;101457.25;;;34.25;27.70
64908;BME280;51412;52.236;5.188;2022-08-25T11:04:34;101449.72;;;34.26;27.68
64908;BME280;51412;52.236;5.188;2022-08-25T11:07:09;101446.19;;;34.31;27.54
64908;BME280;51412;52.236;5.188;2022-08-25T11:09:40;101436.25;;;34.47;27.70
64908;BME280;51412;52.236;5.188;2022-08-25T11:12:10;101438.22;;;34.52;27.56
64908;BME280;51412;52.236;5.188;2022-08-25T11:14:45;101434.34;;;34.61;27.79
64908;BME280;51412;52.236;5.188;2022-08-25T11:17:16;101438.00;;;34.69;27.55
64908;BME280;51412;52.236;5.188;2022-08-25T11:19:48;101437.88;;;34.62;27.89
64908;BME280;51412;52.236;5.188;2022-08-25T11:22:23;101436.72;;;34.51;28.33
64908;BME280;51412;52.236;5.188;2022-08-25T11:24:58;101434.19;;;34.53;28.74
64908;BME280;51412;52.236;5.188;2022-08-25T11:27:35;101436.88;;;34.59;27.93
64908;BME280;51412;52.236;5.188;2022-08-25T11:30:05;101423.81;;;34.60;27.63
64908;BME280;51412;52.236;5.188;2022-08-25T11:32:33;101424.06;;;34.62;28.38
64908;BME280;51412;52.236;5.188;2022-08-25T11:35:01;101422.66;;;34.74;27.62
64908;BME280;51412;52.236;5.188;2022-08-25T11:37:30;101421.56;;;34.83;28.27
64908;BME280;51412;52.236;5.188;2022-08-25T11:40:19;101411.97;;;34.65;27.52
64908;BME280;51412;52.236;5.188;2022-08-25T11:43:00;101424.63;;;34.54;27.50
64908;BME280;51412;52.236;5.188;2022-08-25T11:45:47;101422.53;;;34.41;27.69
64908;BME280;51412;52.236;5.188;2022-08-25T11:48:23;101415.03;;;34.36;29.45
64908;BME280;51412;52.236;5.188;2022-08-25T11:50:57;101409.53;;;34.36;28.59
64908;BME280;51412;52.236;5.188;2022-08-25T11:53:27;101413.00;;;34.43;27.82
64908;BME280;51412;52.236;5.188;2022-08-25T11:55:56;101415.88;;;34.25;27.82
64908;BME280;51412;52.236;5.188;2022-08-25T11:58:32;101415.13;;;34.25;27.07
64908;BME280;51412;52.236;5.188;2022-08-25T12:01:00;101409.91;;;34.21;27.41
64908;BME280;51412;52.236;5.188;2022-08-25T12:03:50;101411.47;;;34.17;26.74
64908;BME280;51412;52.236;5.188;2022-08-25T12:06:23;101411.09;;;34.26;28.14
64908;BME280;51412;52.236;5.188;2022-08-25T12:09:16;101401.78;;;34.35;26.40
64908;BME280;51412;52.236;5.188;2022-08-25T12:11:58;101407.75;;;34.39;25.75
64908;BME280;51412;52.236;5.188;2022-08-25T12:14:46;101393.25;;;34.57;25.46
64908;BME280;51412;52.236;5.188;2022-08-25T12:17:22;101395.94;;;34.63;25.92
64908;BME280;51412;52.236;5.188;2022-08-25T12:19:54;101401.19;;;34.67;25.79
64908;BME280;51412;52.236;5.188;2022-08-25T12:22:41;101396.28;;;34.54;25.52
64908;BME280;51412;52.236;5.188;2022-08-25T12:25:26;101397.06;;;34.73;26.81
64908;BME280;51412;52.236;5.188;2022-08-25T12:28:01;101387.25;;;34.97;26.55
64908;BME280;51412;52.236;5.188;2022-08-25T12:30:40;101396.78;;;35.15;26.82
64908;BME280;51412;52.236;5.188;2022-08-25T12:33:14;101396.13;;;35.28;25.60
64908;BME280;51412;52.236;5.188;2022-08-25T12:35:54;101397.91;;;35.45;25.38
64908;BME280;51412;52.236;5.188;2022-08-25T12:38:28;101393.34;;;35.47;25.09
64908;BME280;51412;52.236;5.188;2022-08-25T12:41:00;101389.44;;;35.56;24.33
64908;BME280;51412;52.236;5.188;2022-08-25T12:43:30;101383.63;;;35.73;25.21
64908;BME280;51412;52.236;5.188;2022-08-25T12:46:34;101385.72;;;35.86;24.39
64908;BME280;51412;52.236;5.188;2022-08-25T12:49:11;101376.47;;;35.97;25.03
64908;BME280;51412;52.236;5.188;2022-08-25T12:51:51;101390.41;;;36.04;24.92
64908;BME280;51412;52.236;5.188;2022-08-25T12:54:24;101386.38;;;36.05;24.68
64908;BME280;51412;52.236;5.188;2022-08-25T12:56:55;101378.31;;;36.07;24.82
64908;BME280;51412;52.236;5.188;2022-08-25T12:59:31;101374.66;;;36.13;26.24
64908;BME280;51412;52.236;5.188;2022-08-25T13:02:13;101379.34;;;36.18;25.09
64908;BME280;51412;52.236;5.188;2022-08-25T13:05:04;101376.56;;;36.04;25.36
64908;BME280;51412;52.236;5.188;2022-08-25T13:07:49;101369.22;;;35.94;26.36
64908;BME280;51412;52.236;5.188;2022-08-25T13:10:24;101369.34;;;35.88;24.55
64908;BME280;51412;52.236;5.188;2022-08-25T13:12:58;101362.19;;;35.92;25.16